sensor_id;sensor_type;location;lat;lon;timestamp;pressure;altitude;pressure_sealevel;temperature;humidity
11345;BME280;5727;42.600;23.028;2023-06-22T00:00:39;94113.91;;;19.76;100.00
11345;BME280;5727;42.600;23.028;2023-06-22T00:03:07;94114.66;;;19.77;100.00
11345;BME280;5727;42.600;23.028;2023-06-22T00:05:34;94108.97;;;19.78;100.00
11345;BME280;5727;42.600;23.028;2023-06-22T00:08:03;94109.31;;;19.70;100.00
11345;BME280;5727;42.600;23.028;2023-06-22T00:10:30;94107.00;;;19.65;100.00
11345;BME280;5727;42.600;23.028;2023-06-22T00:12:59;94105.06;;;19.58;100.00
11345;BME280;5727;42.600;23.028;2023-06-22T00:15:26;94108.50;;;19.62;100.00
11345;BME280;5727;42.600;23.028;2023-06-22T00:17:53;94100.91;;;19.57;100.00
11345;BME280;5727;42.600;23.028;2023-06-22T00:20:19;94093.28;;;19.56;100.00
11345;BME280;5727;42.600;23.028;2023-06-22T00:22:46;94095.91;;;19.49;100.00
11345;BME280;5727;42.600;23.028;2023-06-22T00:25:13;94090.19;;;19.47;100.00
11345;BME280;5727;42.600;23.028;2023-06-22T00:27:40;94095.50;;;19.43;100.00
11345;BME280;5727;42.600;23.028;2023-06-22T00:30:09;94092.44;;;19.41;100.00
11345;BME280;5727;42.600;23.028;2023-06-22T00:32:36;94083.31;;;19.35;100.00
11345;BME280;5727;42.600;23.028;2023-06-22T00:35:03;94080.97;;;19.30;100.00
11345;BME280;5727;42.600;23.028;2023-06-22T00:37:30;94079.03;;;19.27;100.00
11345;BME280;5727;42.600;23.028;2023-06-22T00:39:57;94080.91;;;19.23;100.00
11345;BME280;5727;42.600;23.028;2023-06-22T00:42:24;94085.72;;;19.03;100.00
11345;BME280;5727;42.600;23.028;2023-06-22T00:44:51;94087.19;;;18.94;100.00
11345;BME280;5727;42.600;23.028;2023-06-22T00:47:19;94082.53;;;18.84;100.00
11345;BME280;5727;42.600;23.028;2023-06-22T00:49:47;94078.41;;;18.86;100.00
11345;BME280;5727;42.600;23.028;2023-06-22T00:52:17;94079.13;;;18.83;100.00
11345;BME280;5727;42.600;23.028;2023-06-22T00:54:47;94080.59;;;18.81;100.00
11345;BME280;5727;42.600;23.028;2023-06-22T00:57:17;94083.22;;;18.74;100.00
11345;BME280;5727;42.600;23.028;2023-06-22T00:59:44;94088.50;;;18.70;100.00
11345;BME280;5727;42.600;23.028;2023-06-22T01:02:11;94083.47;;;18.62;100.00
11345;BME280;5727;42.600;23.028;2023-06-22T01:04:40;94089.13;;;18.57;100.00
11345;BME280;5727;42.600;23.028;2023-06-22T01:07:14;94093.31;;;18.58;100.00
11345;BME280;5727;42.600;23.028;2023-06-22T01:09:52;94097.09;;;18.57;100.00
11345;BME280;5727;42.600;23.028;2023-06-22T01:12:25;94105.47;;;18.59;100.00
11345;BME280;5727;42.600;23.028;2023-06-22T01:14:57;94094.03;;;18.55;100.00
11345;BME280;5727;42.600;23.028;2023-06-22T01:17:24;94101.22;;;18.54;100.00
11345;BME280;5727;42.600;23.028;2023-06-22T01:19:55;94091.00;;;18.53;100.00
11345;BME280;5727;42.600;23.028;2023-06-22T01:22:24;94094.78;;;18.52;100.00
11345;BME280;5727;42.600;23.028;2023-06-22T01:24:59;94098.56;;;18.51;100.00
11345;BME280;5727;42.600;23.028;2023-06-22T01:27:38;94102.97;;;18.40;100.00
11345;BME280;5727;42.600;23.028;2023-06-22T01:30:10;94101.44;;;18.39;100.00
11345;BME280;5727;42.600;23.028;2023-06-22T01:32:38;94106.75;;;18.39;100.00
11345;BME280;5727;42.600;23.028;2023-06-22T01:35:08;94102.16;;;18.36;100.00
11345;BME280;5727;42.600;23.028;2023-06-22T01:37:37;94107.50;;;18.39;100.00
11345;BME280;5727;42.600;23.028;2023-06-22T01:40:05;94107.13;;;18.41;100.00
11345;BME280;5727;42.600;23.028;2023-06-22T01:42:34;94112.00;;;18.35;100.00
11345;BME280;5727;42.600;23.028;2023-06-22T01:45:02;94114.66;;;18.35;100.00
11345;BME280;5727;42.600;23.028;2023-06-22T01:47:31;94117.28;;;18.32;100.00
11345;BME280;5727;42.600;23.028;2023-06-22T01:49:58;94124.84;;;18.29;100.00
11345;BME280;5727;42.600;23.028;2023-06-22T01:52:25;94118.81;;;18.33;100.00
11345;BME280;5727;42.600;23.028;2023-06-22T01:54:52;94112.78;;;18.36;100.00
11345;BME280;5727;42.600;23.028;2023-06-22T01:57:18;94119.59;;;18.37;100.00
11345;BME280;5727;42.600;23.028;2023-06-22T01:59:49;94129.47;;;18.36;100.00
11345;BME280;5727;42.600;23.028;2023-06-22T02:02:20;94122.25;;;18.37;100.00
11345;BME280;5727;42.600;23.028;2023-06-22T02:04:57;94125.28;;;18.35;100.00
11345;BME280;5727;42.600;23.028;2023-06-22T02:07:28;94137.41;;;18.33;100.00
11345;BME280;5727;42.600;23.028;2023-06-22T02:09:59;94135.84;;;18.32;100.00
11345;BME280;5727;42.600;23.028;2023-06-22T02:12:29;94134.34;;;18.31;100.00
11345;BME280;5727;42.600;23.028;2023-06-22T02:14:57;94131.69;;;18.31;100.00
11345;BME280;5727;42.600;23.028;2023-06-22T02:17:26;94122.94;;;18.26;100.00
11345;BME280;5727;42.600;23.028;2023-06-22T02:19:54;94114.53;;;18.21;100.00
11345;BME280;5727;42.600;23.028;2023-06-22T02:22:21;94123.94;;;18.15;100.00
11345;BME280;5727;42.600;23.028;2023-06-22T02:24:49;94121.63;;;18.13;100.00
11345;BME280;5727;42.600;23.028;2023-06-22T02:27:15;94124.69;;;18.15;100.00
11345;BME280;5727;42.600;23.028;2023-06-22T02:29:42;94115.56;;;18.13;100.00
11345;BME280;5727;42.600;23.028;2023-06-22T02:32:09;94119.31;;;18.08;100.00
11345;BME280;5727;42.600;23.028;2023-06-22T02:34:36;94123.50;;;18.09;100.00
11345;BME280;5727;42.600;23.028;2023-06-22T02:37:04;94123.53;;;18.13;100.00
11345;BME280;5727;42.600;23.028;2023-06-22T02:39:31;94125.75;;;18.07;100.00
11345;BME280;5727;42.600;23.028;2023-06-22T02:41:57;94114.78;;;18.09;100.00
11345;BME280;5727;42.600;23.028;2023-06-22T02:44:24;94119.28;;;18.05;100.00
11345;BME280;5727;42.600;23.028;2023-06-22T02:46:51;94116.59;;;18.01;100.00
11345;BME280;5727;42.600;23.028;2023-06-22T02:49:19;94113.94;;;18.01;100.00
11345;BME280;5727;42.600;23.028;2023-06-22T02:51:47;94111.69;;;18.03;100.00
11345;BME280;5727;42.600;23.028;2023-06-22T02:54:15;94112.38;;;18.00;100.00
11345;BME280;5727;42.600;23.028;2023-06-22T02:56:43;94126.00;;;17.99;100.00
11345;BME280;5727;42.600;23.028;2023-06-22T02:59:10;94121.47;;;17.99;100.00
11345;BME280;5727;42.600;23.028;2023-06-22T03:01:37;94121.44;;;17.96;100.00
11345;BME280;5727;42.600;23.028;2023-06-22T03:04:05;94126.63;;;17.89;100.00
11345;BME280;5727;42.600;23.028;2023-06-22T03:06:32;94130.59;;;17.72;100.00
11345;BME280;5727;42.600;23.028;2023-06-22T03:09:00;94138.16;;;17.70;100.00
11345;BME280;5727;42.600;23.028;2023-06-22T03:11:30;94142.78;;;17.77;100.00
11345;BME280;5727;42.600;23.028;2023-06-22T03:13:57;94145.16;;;17.85;100.00
11345;BME280;5727;42.600;23.028;2023-06-22T03:16:23;94153.88;;;17.86;100.00
11345;BME280;5727;42.600;23.028;2023-06-22T03:18:50;94155.41;;;17.87;100.00
11345;BME280;5727;42.600;23.028;2023-06-22T03:21:18;94146.22;;;17.81;100.00
11345;BME280;5727;42.600;23.028;2023-06-22T03:23:45;94149.28;;;17.83;100.00
11345;BME280;5727;42.600;23.028;2023-06-22T03:26:12;94156.53;;;17.86;100.00
11345;BME280;5727;42.600;23.028;2023-06-22T03:28:40;94160.66;;;17.83;100.00
11345;BME280;5727;42.600;23.028;2023-06-22T03:31:06;94158.50;;;17.92;100.00
11345;BME280;5727;42.600;23.028;2023-06-22T03:33:33;94166.91;;;17.98;100.00
11345;BME280;5727;42.600;23.028;2023-06-22T03:36:00;94166.59;;;18.03;100.00
11345;BME280;5727;42.600;23.028;2023-06-22T03:38:27;94169.34;;;18.13;100.00
11345;BME280;5727;42.600;23.028;2023-06-22T03:40:53;94172.41;;;18.15;100.00
11345;BME280;5727;42.600;23.028;2023-06-22T03:43:20;94168.66;;;18.16;100.00
11345;BME280;5727;42.600;23.028;2023-06-22T03:45:48;94174.34;;;18.18;100.00
11345;BME280;5727;42.600;23.028;2023-06-22T03:48:15;94173.28;;;18.23;100.00
11345;BME280;5727;42.600;23.028;2023-06-22T03:50:42;94169.53;;;18.27;100.00
11345;BME280;5727;42.600;23.028;2023-06-22T03:53:09;94173.31;;;18.26;100.00
11345;BME280;5727;42.600;23.028;2023-06-22T03:55:36;94180.13;;;18.27;100.00
11345;BME280;5727;42.600;23.028;2023-06-22T03:58:03;94176.44;;;18.36;100.00
11345;BME280;5727;42.600;23.028;2023-06-22T04:00:31;94166.25;;;18.38;100.00
11345;BME280;5727;42.600;23.028;2023-06-22T04:02:59;94166.69;;;18.43;100.00
11345;BME280;5727;42.600;23.028;2023-06-22T04:05:26;94156.88;;;18.44;100.00
11345;BME280;5727;42.600;23.028;2023-06-22T04:07:52;94153.38;;;18.40;100.00
11345;BME280;5727;42.600;23.028;2023-06-22T04:10:19;94165.78;;;18.28;100.00
11345;BME280;5727;42.600;23.028;2023-06-22T04:12:46;94161.19;;;18.29;100.00
11345;BME280;5727;42.600;23.028;2023-06-22T04:15:13;94162.03;;;18.37;100.00
11345;BME280;5727;42.600;23.028;2023-06-22T04:17:40;94165.19;;;18.42;100.00
11345;BME280;5727;42.600;23.028;2023-06-22T04:20:09;94163.78;;;18.52;100.00
11345;BME280;5727;42.600;23.028;2023-06-22T04:22:36;94160.78;;;18.57;100.00
11345;BME280;5727;42.600;23.028;2023-06-22T04:25:03;94163.03;;;18.55;100.00
11345;BME280;5727;42.600;23.028;2023-06-22T04:27:29;94157.09;;;18.65;100.00
11345;BME280;5727;42.600;23.028;2023-06-22T04:29:57;94160.97;;;18.74;100.00
11345;BME280;5727;42.600;23.028;2023-06-22T04:32:25;94165.22;;;18.82;100.00
11345;BME280;5727;42.600;23.028;2023-06-22T04:34:52;94162.63;;;18.89;100.00
11345;BME280;5727;42.600;23.028;2023-06-22T04:37:20;94166.50;;;18.99;100.00
11345;BME280;5727;42.600;23.028;2023-06-22T04:39:48;94172.59;;;19.03;100.00
11345;BME280;5727;42.600;23.028;2023-06-22T04:42:15;94177.97;;;19.10;100.00
11345;BME280;5727;42.600;23.028;2023-06-22T04:44:42;94174.97;;;19.15;100.00
11345;BME280;5727;42.600;23.028;2023-06-22T04:47:08;94170.88;;;19.25;100.00
11345;BME280;5727;42.600;23.028;2023-06-22T04:49:36;94168.34;;;19.39;100.00
11345;BME280;5727;42.600;23.028;2023-06-22T04:52:05;94168.34;;;19.42;100.00
11345;BME280;5727;42.600;23.028;2023-06-22T04:54:33;94168.47;;;19.56;100.00
11345;BME280;5727;42.600;23.028;2023-06-22T04:57:00;94173.88;;;19.67;100.00
11345;BME280;5727;42.600;23.028;2023-06-22T04:59:27;94167.81;;;19.73;100.00
11345;BME280;5727;42.600;23.028;2023-06-22T05:01:55;94172.41;;;19.80;100.00
11345;BME280;5727;42.600;23.028;2023-06-22T05:04:22;94176.66;;;19.91;100.00
11345;BME280;5727;42.600;23.028;2023-06-22T05:06:49;94173.25;;;19.94;100.00
11345;BME280;5727;42.600;23.028;2023-06-22T05:09:16;94167.97;;;20.01;100.00
11345;BME280;5727;42.600;23.028;2023-06-22T05:11:45;94156.91;;;19.96;100.00
11345;BME280;5727;42.600;23.028;2023-06-22T05:14:11;94161.13;;;20.00;100.00
11345;BME280;5727;42.600;23.028;2023-06-22T05:16:38;94161.13;;;20.07;100.00
11345;BME280;5727;42.600;23.028;2023-06-22T05:19:05;94165.75;;;20.18;100.00
11345;BME280;5727;42.600;23.028;2023-06-22T05:21:32;94160.50;;;20.25;100.00
11345;BME280;5727;42.600;23.028;2023-06-22T05:23:59;94160.91;;;20.37;100.00
11345;BME280;5727;42.600;23.028;2023-06-22T05:26:28;94162.47;;;20.42;100.00
11345;BME280;5727;42.600;23.028;2023-06-22T05:28:57;94165.13;;;20.49;100.00
11345;BME280;5727;42.600;23.028;2023-06-22T05:31:24;94161.75;;;20.62;100.00
11345;BME280;5727;42.600;23.028;2023-06-22T05:33:51;94170.50;;;20.70;100.00
11345;BME280;5727;42.600;23.028;2023-06-22T05:36:18;94178.88;;;20.82;100.00
11345;BME280;5727;42.600;23.028;2023-06-22T05:38:46;94179.69;;;20.97;100.00
11345;BME280;5727;42.600;23.028;2023-06-22T05:41:14;94190.72;;;20.99;100.00
11345;BME280;5727;42.600;23.028;2023-06-22T05:43:40;94196.78;;;20.89;100.00
11345;BME280;5727;42.600;23.028;2023-06-22T05:46:08;94196.81;;;20.92;100.00
11345;BME280;5727;42.600;23.028;2023-06-22T05:48:35;94200.25;;;21.04;100.00
11345;BME280;5727;42.600;23.028;2023-06-22T05:51:02;94193.03;;;21.04;100.00
11345;BME280;5727;42.600;23.028;2023-06-22T05:53:29;94187.34;;;21.16;100.00
11345;BME280;5727;42.600;23.028;2023-06-22T05:55:56;94182.03;;;21.30;100.00
11345;BME280;5727;42.600;23.028;2023-06-22T05:58:23;94183.56;;;21.42;100.00
11345;BME280;5727;42.600;23.028;2023-06-22T06:00:49;94183.91;;;21.54;100.00
11345;BME280;5727;42.600;23.028;2023-06-22T06:03:17;94182.75;;;21.69;100.00
11345;BME280;5727;42.600;23.028;2023-06-22T06:05:44;94170.53;;;21.79;100.00
11345;BME280;5727;42.600;23.028;2023-06-22T06:08:11;94170.19;;;21.88;100.00
11345;BME280;5727;42.600;23.028;2023-06-22T06:10:38;94171.28;;;22.01;100.00
11345;BME280;5727;42.600;23.028;2023-06-22T06:13:05;94170.88;;;22.13;100.00
11345;BME280;5727;42.600;23.028;2023-06-22T06:15:32;94173.13;;;22.18;100.00
11345;BME280;5727;42.600;23.028;2023-06-22T06:17:59;94168.88;;;22.31;100.00
11345;BME280;5727;42.600;23.028;2023-06-22T06:20:28;94165.09;;;22.28;100.00
11345;BME280;5727;42.600;23.028;2023-06-22T06:22:55;94159.78;;;22.21;100.00
11345;BME280;5727;42.600;23.028;2023-06-22T06:25:22;94161.66;;;22.31;100.00
11345;BME280;5727;42.600;23.028;2023-06-22T06:27:50;94158.59;;;22.33;100.00
11345;BME280;5727;42.600;23.028;2023-06-22T06:30:19;94160.44;;;22.46;100.00
11345;BME280;5727;42.600;23.028;2023-06-22T06:32:46;94158.84;;;22.56;100.00
11345;BME280;5727;42.600;23.028;2023-06-22T06:35:15;94157.28;;;22.69;100.00
11345;BME280;5727;42.600;23.028;2023-06-22T06:37:45;94157.19;;;22.83;100.00
11345;BME280;5727;42.600;23.028;2023-06-22T06:40:13;94155.59;;;22.96;100.00
11345;BME280;5727;42.600;23.028;2023-06-22T06:42:41;94168.13;;;23.06;100.00
11345;BME280;5727;42.600;23.028;2023-06-22T06:45:10;94162.63;;;23.27;100.00
11345;BME280;5727;42.600;23.028;2023-06-22T06:47:37;94164.28;;;23.58;100.00
11345;BME280;5727;42.600;23.028;2023-06-22T06:50:05;94161.34;;;23.87;100.00
11345;BME280;5727;42.600;23.028;2023-06-22T06:52:32;94154.97;;;24.14;100.00
11345;BME280;5727;42.600;23.028;2023-06-22T06:55:00;94155.81;;;24.38;100.00
11345;BME280;5727;42.600;23.028;2023-06-22T06:57:26;94163.63;;;24.56;100.00
11345;BME280;5727;42.600;23.028;2023-06-22T06:59:54;94166.09;;;24.73;100.00
11345;BME280;5727;42.600;23.028;2023-06-22T07:02:22;94163.59;;;24.89;100.00
11345;BME280;5727;42.600;23.028;2023-06-22T07:04:49;94162.53;;;25.10;100.00
11345;BME280;5727;42.600;23.028;2023-06-22T07:07:16;94159.06;;;25.09;100.00
11345;BME280;5727;42.600;23.028;2023-06-22T07:09:43;94159.91;;;25.06;100.00
11345;BME280;5727;42.600;23.028;2023-06-22T07:12:11;94156.75;;;25.11;100.00
11345;BME280;5727;42.600;23.028;2023-06-22T07:14:38;94155.53;;;25.16;100.00
11345;BME280;5727;42.600;23.028;2023-06-22T07:17:04;94158.63;;;25.14;100.00
11345;BME280;5727;42.600;23.028;2023-06-22T07:19:32;94160.03;;;24.96;100.00
11345;BME280;5727;42.600;23.028;2023-06-22T07:21:59;94149.97;;;25.03;100.00
11345;BME280;5727;42.600;23.028;2023-06-22T07:24:27;94159.94;;;25.03;100.00
11345;BME280;5727;42.600;23.028;2023-06-22T07:26:53;94158.84;;;25.00;100.00
11345;BME280;5727;42.600;23.028;2023-06-22T07:29:22;94159.66;;;24.97;100.00
11345;BME280;5727;42.600;23.028;2023-06-22T07:31:49;94159.94;;;25.03;100.00
11345;BME280;5727;42.600;23.028;2023-06-22T07:34:17;94157.81;;;24.91;100.00
11345;BME280;5727;42.600;23.028;2023-06-22T07:36:44;94170.69;;;25.03;100.00
11345;BME280;5727;42.600;23.028;2023-06-22T07:39:11;94167.47;;;25.11;100.00
11345;BME280;5727;42.600;23.028;2023-06-22T07:41:39;94171.13;;;24.98;100.00
11345;BME280;5727;42.600;23.028;2023-06-22T07:44:06;94166.13;;;25.00;100.00
11345;BME280;5727;42.600;23.028;2023-06-22T07:46:34;94158.78;;;25.04;100.00
11345;BME280;5727;42.600;23.028;2023-06-22T07:49:02;94158.72;;;25.07;100.00
11345;BME280;5727;42.600;23.028;2023-06-22T07:51:29;94159.66;;;24.97;100.00
11345;BME280;5727;42.600;23.028;2023-06-22T07:53:55;94156.38;;;25.09;100.00
11345;BME280;5727;42.600;23.028;2023-06-22T07:56:22;94157.22;;;25.06;100.00
11345;BME280;5727;42.600;23.028;2023-06-22T07:58:49;94157.41;;;25.19;100.00
11345;BME280;5727;42.600;23.028;2023-06-22T08:01:16;94148.97;;;25.20;100.00
11345;BME280;5727;42.600;23.028;2023-06-22T08:03:47;94157.59;;;25.31;100.00
11345;BME280;5727;42.600;23.028;2023-06-22T08:06:14;94153.19;;;25.45;100.00
11345;BME280;5727;42.600;23.028;2023-06-22T08:08:41;94138.56;;;25.49;100.00
11345;BME280;5727;42.600;23.028;2023-06-22T08:11:09;94144.22;;;25.55;100.00
11345;BME280;5727;42.600;23.028;2023-06-22T08:13:35;94138.22;;;25.67;100.00
11345;BME280;5727;42.600;23.028;2023-06-22T08:16:02;94142.09;;;25.66;100.00
11345;BME280;5727;42.600;23.028;2023-06-22T08:18:29;94132.00;;;25.73;100.00
11345;BME280;5727;42.600;23.028;2023-06-22T08:20:57;94133.66;;;25.87;100.00
11345;BME280;5727;42.600;23.028;2023-06-22T08:23:24;94139.03;;;25.87;100.00
11345;BME280;5727;42.600;23.028;2023-06-22T08:25:50;94133.75;;;25.83;100.00
11345;BME280;5727;42.600;23.028;2023-06-22T08:28:17;94141.50;;;25.78;100.00
11345;BME280;5727;42.600;23.028;2023-06-22T08:30:44;94134.16;;;25.82;100.00
11345;BME280;5727;42.600;23.028;2023-06-22T08:33:11;94131.69;;;25.91;100.00
11345;BME280;5727;42.600;23.028;2023-06-22T08:35:38;94128.03;;;26.01;100.00
11345;BME280;5727;42.600;23.028;2023-06-22T08:38:06;94125.69;;;26.03;100.00
11345;BME280;5727;42.600;23.028;2023-06-22T08:40:34;94124.50;;;26.04;100.00
11345;BME280;5727;42.600;23.028;2023-06-22T08:43:00;94127.09;;;26.11;100.00
11345;BME280;5727;42.600;23.028;2023-06-22T08:45:27;94124.06;;;26.09;100.00
11345;BME280;5727;42.600;23.028;2023-06-22T08:47:54;94128.28;;;26.30;100.00
11345;BME280;5727;42.600;23.028;2023-06-22T08:50:21;94124.28;;;26.38;100.00
11345;BME280;5727;42.600;23.028;2023-06-22T08:52:48;94126.31;;;26.50;100.00
11345;BME280;5727;42.600;23.028;2023-06-22T08:55:16;94120.13;;;26.53;99.65
11345;BME280;5727;42.600;23.028;2023-06-22T08:57:43;94121.41;;;26.64;91.94
11345;BME280;5727;42.600;23.028;2023-06-22T09:00:10;94116.72;;;26.68;95.23
11345;BME280;5727;42.600;23.028;2023-06-22T09:02:42;94114.91;;;26.81;92.30
11345;BME280;5727;42.600;23.028;2023-06-22T09:05:09;94117.34;;;26.92;86.35
11345;BME280;5727;42.600;23.028;2023-06-22T09:07:36;94107.69;;;26.94;82.74
11345;BME280;5727;42.600;23.028;2023-06-22T09:10:05;94108.19;;;26.89;90.19
11345;BME280;5727;42.600;23.028;2023-06-22T09:12:33;94113.66;;;27.02;88.40
11345;BME280;5727;42.600;23.028;2023-06-22T09:15:02;94116.84;;;27.13;85.76
11345;BME280;5727;42.600;23.028;2023-06-22T09:17:29;94113.75;;;26.98;85.13
11345;BME280;5727;42.600;23.028;2023-06-22T09:19:56;94113.88;;;26.75;86.10
11345;BME280;5727;42.600;23.028;2023-06-22T09:22:23;94112.56;;;26.83;88.08
11345;BME280;5727;42.600;23.028;2023-06-22T09:24:54;94116.91;;;26.93;89.21
11345;BME280;5727;42.600;23.028;2023-06-22T09:27:21;94116.59;;;27.07;89.70
11345;BME280;5727;42.600;23.028;2023-06-22T09:29:49;94112.47;;;27.19;85.09
11345;BME280;5727;42.600;23.028;2023-06-22T09:32:16;94116.09;;;27.29;84.33
11345;BME280;5727;42.600;23.028;2023-06-22T09:34:42;94123.94;;;27.39;86.94
11345;BME280;5727;42.600;23.028;2023-06-22T09:37:09;94127.66;;;27.45;85.30
11345;BME280;5727;42.600;23.028;2023-06-22T09:39:36;94110.84;;;27.41;87.40
11345;BME280;5727;42.600;23.028;2023-06-22T09:42:03;94113.09;;;27.43;85.68
11345;BME280;5727;42.600;23.028;2023-06-22T09:44:30;94105.44;;;27.41;86.91
11345;BME280;5727;42.600;23.028;2023-06-22T09:46:59;94107.03;;;27.55;81.52
11345;BME280;5727;42.600;23.028;2023-06-22T09:49:26;94107.03;;;27.55;84.84
11345;BME280;5727;42.600;23.028;2023-06-22T09:51:53;94114.41;;;27.67;84.48
11345;BME280;5727;42.600;23.028;2023-06-22T09:54:19;94118.09;;;27.73;78.07
11345;BME280;5727;42.600;23.028;2023-06-22T09:56:46;94116.06;;;27.77;80.19
11345;BME280;5727;42.600;23.028;2023-06-22T09:59:13;94118.09;;;27.73;81.58
11345;BME280;5727;42.600;23.028;2023-06-22T10:01:40;94108.31;;;27.95;83.44
11345;BME280;5727;42.600;23.028;2023-06-22T10:04:08;94100.69;;;28.06;80.59
11345;BME280;5727;42.600;23.028;2023-06-22T10:06:34;94100.47;;;28.00;81.29
11345;BME280;5727;42.600;23.028;2023-06-22T10:09:01;94101.03;;;28.08;86.66
11345;BME280;5727;42.600;23.028;2023-06-22T10:11:28;94093.84;;;28.30;84.60
11345;BME280;5727;42.600;23.028;2023-06-22T10:13:56;94091.69;;;28.38;86.36
11345;BME280;5727;42.600;23.028;2023-06-22T10:16:24;94088.84;;;28.57;80.18
11345;BME280;5727;42.600;23.028;2023-06-22T10:18:52;94089.75;;;28.38;78.16
11345;BME280;5727;42.600;23.028;2023-06-22T10:21:20;94083.13;;;28.55;79.13
11345;BME280;5727;42.600;23.028;2023-06-22T10:23:46;94090.38;;;28.58;79.70
11345;BME280;5727;42.600;23.028;2023-06-22T10:26:13;94093.59;;;28.66;78.69
11345;BME280;5727;42.600;23.028;2023-06-22T10:28:40;94093.06;;;28.83;71.98
11345;BME280;5727;42.600;23.028;2023-06-22T10:31:07;94081.38;;;28.99;70.04
11345;BME280;5727;42.600;23.028;2023-06-22T10:33:33;94082.50;;;28.89;73.49
11345;BME280;5727;42.600;23.028;2023-06-22T10:36:00;94082.81;;;28.91;69.92
11345;BME280;5727;42.600;23.028;2023-06-22T10:38:28;94083.13;;;29.06;68.70
11345;BME280;5727;42.600;23.028;2023-06-22T10:40:55;94069.53;;;28.97;69.30
11345;BME280;5727;42.600;23.028;2023-06-22T10:43:22;94077.00;;;28.92;71.80
11345;BME280;5727;42.600;23.028;2023-06-22T10:45:49;94072.66;;;28.82;64.94
11345;BME280;5727;42.600;23.028;2023-06-22T10:48:15;94076.31;;;29.01;69.39
11345;BME280;5727;42.600;23.028;2023-06-22T10:50:42;94075.34;;;29.33;66.81
11345;BME280;5727;42.600;23.028;2023-06-22T10:53:09;94075.44;;;29.29;63.66
11345;BME280;5727;42.600;23.028;2023-06-22T10:55:37;94075.25;;;29.24;61.28
11345;BME280;5727;42.600;23.028;2023-06-22T10:58:03;94082.59;;;29.23;59.83
11345;BME280;5727;42.600;23.028;2023-06-22T11:00:30;94072.22;;;29.09;62.75
11345;BME280;5727;42.600;23.028;2023-06-22T11:02:57;94074.59;;;29.20;64.86
11345;BME280;5727;42.600;23.028;2023-06-22T11:05:23;94078.03;;;29.33;65.54
11345;BME280;5727;42.600;23.028;2023-06-22T11:07:51;94071.03;;;29.57;62.55
11345;BME280;5727;42.600;23.028;2023-06-22T11:10:17;94070.06;;;29.63;54.53
11345;BME280;5727;42.600;23.028;2023-06-22T11:12:45;94088.97;;;29.51;55.79
11345;BME280;5727;42.600;23.028;2023-06-22T11:15:12;94068.78;;;29.21;55.54
11345;BME280;5727;42.600;23.028;2023-06-22T11:17:39;94064.66;;;29.17;58.35
11345;BME280;5727;42.600;23.028;2023-06-22T11:20:07;94065.44;;;29.17;55.54
11345;BME280;5727;42.600;23.028;2023-06-22T11:22:37;94071.59;;;29.18;55.04
11345;BME280;5727;42.600;23.028;2023-06-22T11:25:05;94064.22;;;29.31;56.92
11345;BME280;5727;42.600;23.028;2023-06-22T11:27:32;94055.03;;;29.41;57.19
11345;BME280;5727;42.600;23.028;2023-06-22T11:30:00;94046.16;;;29.96;57.51
11345;BME280;5727;42.600;23.028;2023-06-22T11:32:27;94050.91;;;31.64;50.74
11345;BME280;5727;42.600;23.028;2023-06-22T11:34:53;94044.59;;;33.28;43.42
11345;BME280;5727;42.600;23.028;2023-06-22T11:37:20;94040.69;;;35.68;35.51
11345;BME280;5727;42.600;23.028;2023-06-22T11:39:47;94042.75;;;35.73;34.53
11345;BME280;5727;42.600;23.028;2023-06-22T11:42:14;94046.50;;;35.55;34.41
11345;BME280;5727;42.600;23.028;2023-06-22T11:44:41;94046.94;;;35.14;36.08
11345;BME280;5727;42.600;23.028;2023-06-22T11:47:09;94051.25;;;35.40;35.85
11345;BME280;5727;42.600;23.028;2023-06-22T11:49:38;94048.81;;;35.82;34.31
11345;BME280;5727;42.600;23.028;2023-06-22T11:52:06;94035.97;;;36.34;33.91
11345;BME280;5727;42.600;23.028;2023-06-22T11:54:33;94039.72;;;36.68;32.49
11345;BME280;5727;42.600;23.028;2023-06-22T11:57:00;94054.22;;;35.02;35.05
11345;BME280;5727;42.600;23.028;2023-06-22T11:59:26;94043.78;;;35.96;33.60
11345;BME280;5727;42.600;23.028;2023-06-22T12:01:53;94031.69;;;35.82;32.80
11345;BME280;5727;42.600;23.028;2023-06-22T12:04:22;94031.88;;;37.18;31.44
11345;BME280;5727;42.600;23.028;2023-06-22T12:06:48;94030.06;;;37.40;29.59
11345;BME280;5727;42.600;23.028;2023-06-22T12:09:15;94014.78;;;35.98;31.27
11345;BME280;5727;42.600;23.028;2023-06-22T12:11:42;94019.41;;;35.46;33.19
11345;BME280;5727;42.600;23.028;2023-06-22T12:14:09;94017.47;;;34.34;36.59
11345;BME280;5727;42.600;23.028;2023-06-22T12:16:35;94022.81;;;34.57;36.34
11345;BME280;5727;42.600;23.028;2023-06-22T12:19:03;94037.38;;;35.58;34.71
11345;BME280;5727;42.600;23.028;2023-06-22T12:21:31;94042.66;;;35.27;35.40
11345;BME280;5727;42.600;23.028;2023-06-22T12:23:57;94041.72;;;36.67;32.26
11345;BME280;5727;42.600;23.028;2023-06-22T12:26:24;94044.38;;;37.78;29.62
11345;BME280;5727;42.600;23.028;2023-06-22T12:28:51;94030.84;;;38.22;27.90
11345;BME280;5727;42.600;23.028;2023-06-22T12:31:18;94025.88;;;38.59;27.22
11345;BME280;5727;42.600;23.028;2023-06-22T12:33:44;94028.25;;;37.91;27.77
11345;BME280;5727;42.600;23.028;2023-06-22T12:36:11;94029.84;;;37.07;30.60
11345;BME280;5727;42.600;23.028;2023-06-22T12:38:39;94016.81;;;35.57;31.86
11345;BME280;5727;42.600;23.028;2023-06-22T12:41:06;94017.63;;;35.63;32.75
11345;BME280;5727;42.600;23.028;2023-06-22T12:43:34;94023.78;;;35.24;34.22
11345;BME280;5727;42.600;23.028;2023-06-22T12:46:00;94034.16;;;34.70;37.58
11345;BME280;5727;42.600;23.028;2023-06-22T12:48:27;94061.75;;;33.34;46.86
11345;BME280;5727;42.600;23.028;2023-06-22T12:50:54;94057.53;;;33.57;49.42
11345;BME280;5727;42.600;23.028;2023-06-22T12:53:20;94056.88;;;33.85;48.39